Taza Mas — WCY7704 — position and weather

sailwx.info

Track history (hours):
 
Tides and Currents Weather Stations Pressure Air Temp Water Temp Dewpoint Dewpoint Depression Visibility Wind Speed Wind Dir Waves Ship Positions

Taza Mas

Owner: TAZA MAS INC, FORT WORTH, TX. More information available from US FCC via Universal Licensing System and Coast Guard Vessel Documentation Center.

Last reported at 2015-Jan-02 19:29 UTC. Time now 2015-Feb-26 23:27 UTC.
Position N 18°24' W 064°36'.
Warning: this ship's position is 55 days out of date.

Length 560 m; draft 16.1 m.

Type: Dredging. MMSI: 338046997.

Date/timePositionNaut miles runAvg speedWind from/ knotsBaromVisibWave heightAir tempDewpointWater temp
2015-Jan-02 19:29N 18°24' W 064°36'9 0.3
2015-Jan-01 12:11N 18°26' W 064°45'0 0.0
2015-Jan-01 07:10N 18°26' W 064°45'0 0.0
2015-Jan-01 05:04N 18°26' W 064°45'0 0.0
2015-Jan-01 04:26N 18°26' W 064°45'0 0.0
2015-Jan-01 03:32N 18°26' W 064°45'1 0.1
2014-Dec-31 13:22N 18°26' W 064°43'4 1.3
2014-Dec-31 10:26N 18°26' W 064°40'0 0.0
2014-Dec-31 09:12N 18°26' W 064°40'0 0.0
2014-Dec-31 08:26N 18°26' W 064°40'0 0.0
2014-Dec-31 07:17N 18°26' W 064°40'0 0.0
2014-Dec-31 04:15N 18°26' W 064°40'0 0.0
2014-Dec-31 03:24N 18°26' W 064°40'  
Track history (hours):
 
Tides and Currents Weather Stations Pressure Air Temp Water Temp Dewpoint Dewpoint Depression Visibility Wind Speed Wind Dir Waves Ship Positions

Taza Mas

Owner: TAZA MAS INC, FORT WORTH, TX. More information available from US FCC via Universal Licensing System and Coast Guard Vessel Documentation Center.

Last reported at 2015-Jan-02 19:29 UTC. Time now 2015-Feb-26 23:27 UTC.
Position N 18°24' W 064°36'.
Warning: this ship's position is 55 days out of date.

Length 560 m; draft 16.1 m.

Type: Dredging. MMSI: 338046997.

Date/timePositionNaut miles runAvg speedWind from/ knotsBaromVisibWave heightAir tempDewpointWater temp
2015-Jan-02 19:29N 18°24' W 064°36'9 0.3
2015-Jan-01 12:11N 18°26' W 064°45'0 0.0
2015-Jan-01 07:10N 18°26' W 064°45'0 0.0
2015-Jan-01 05:04N 18°26' W 064°45'0 0.0
2015-Jan-01 04:26N 18°26' W 064°45'0 0.0
2015-Jan-01 03:32N 18°26' W 064°45'1 0.1
2014-Dec-31 13:22N 18°26' W 064°43'4 1.3
2014-Dec-31 10:26N 18°26' W 064°40'0 0.0
2014-Dec-31 09:12N 18°26' W 064°40'0 0.0
2014-Dec-31 08:26N 18°26' W 064°40'0 0.0
2014-Dec-31 07:17N 18°26' W 064°40'0 0.0
2014-Dec-31 04:15N 18°26' W 064°40'0 0.0
2014-Dec-31 03:24N 18°26' W 064°40'  

Dump ship's entire track history